createdAt,value
2022-09-01T00:00:01.570Z,4.1
2022-09-01T00:05:00.111Z,5.7
2022-09-01T00:10:00.126Z,5.7
2022-09-01T00:15:00.126Z,4.3
2022-09-01T00:20:00.135Z,4.3
2022-09-01T00:25:00.110Z,4
2022-09-01T00:30:00.199Z,4
2022-09-01T00:35:00.108Z,4.3
2022-09-01T00:40:00.090Z,4.3
2022-09-01T00:45:00.111Z,5.9
2022-09-01T00:50:00.122Z,5.9
2022-09-01T00:55:00.133Z,4.7
2022-09-01T01:00:00.160Z,4.7
2022-09-01T01:05:00.111Z,5.5
2022-09-01T01:10:00.114Z,5.5
2022-09-01T01:15:00.100Z,5.4
2022-09-01T01:20:00.141Z,5.4
2022-09-01T01:25:00.111Z,5.3
2022-09-01T01:30:00.093Z,5.3
2022-09-01T01:35:00.108Z,6
2022-09-01T01:40:00.139Z,6
2022-09-01T01:45:00.125Z,4.9
2022-09-01T01:50:00.133Z,4.9
2022-09-01T01:55:03.312Z,6.4
2022-09-01T02:00:00.141Z,6.4
2022-09-01T02:05:00.112Z,5.9
2022-09-01T02:10:00.135Z,5.9
2022-09-01T02:15:00.106Z,4.2
2022-09-01T02:20:00.123Z,4.2
2022-09-01T02:25:00.106Z,6.1
2022-09-01T02:30:00.155Z,6.1
2022-09-01T02:35:00.099Z,4.3
2022-09-01T02:40:00.115Z,4.3
2022-09-01T02:45:00.102Z,5.5
2022-09-01T02:50:00.170Z,5.5
2022-09-01T02:55:00.112Z,6.7
2022-09-01T03:00:00.128Z,6.7
2022-09-01T03:05:00.273Z,6.9
2022-09-01T03:10:00.140Z,6.9
2022-09-01T03:15:00.104Z,5
2022-09-01T03:20:00.123Z,5
2022-09-01T03:25:00.128Z,7.4
2022-09-01T03:30:00.093Z,7.4
2022-09-01T03:35:00.099Z,7.4
2022-09-01T03:40:00.122Z,7.4
2022-09-01T03:45:00.117Z,6.8
2022-09-01T03:50:00.135Z,6.8
2022-09-01T03:55:00.094Z,4.9
2022-09-01T04:00:00.134Z,4.9
2022-09-01T04:05:00.123Z,6.5
2022-09-01T04:10:00.138Z,6.5
2022-09-01T04:15:00.110Z,5.9
2022-09-01T04:20:00.121Z,5.9
2022-09-01T04:25:00.118Z,5.7
2022-09-01T04:30:00.088Z,5.7
2022-09-01T04:35:00.118Z,5.2
2022-09-01T04:40:00.094Z,5.2
2022-09-01T04:45:00.135Z,7.8
2022-09-01T04:50:00.106Z,7.8
2022-09-01T04:55:00.122Z,6.1
2022-09-01T05:00:00.096Z,6.1
2022-09-01T05:05:00.109Z,7
2022-09-01T05:10:01.316Z,7
2022-09-01T05:15:00.128Z,8.1
2022-09-01T05:20:00.140Z,8.1
2022-09-01T05:25:00.116Z,6.7
2022-09-01T05:30:00.101Z,6.7
2022-09-01T05:35:00.118Z,6.3
2022-09-01T05:40:00.094Z,6.3
2022-09-01T05:45:00.100Z,5.8
2022-09-01T05:50:00.140Z,5.8
2022-09-01T05:55:00.163Z,6.5
2022-09-01T06:00:00.110Z,6.5
2022-09-01T06:05:00.124Z,6.5
2022-09-01T06:10:00.144Z,6.5
2022-09-01T06:15:00.102Z,4.6
2022-09-01T06:20:00.150Z,4.6
2022-09-01T06:25:02.587Z,5
2022-09-01T06:30:00.110Z,5
2022-09-01T06:35:00.111Z,6.2
2022-09-01T06:40:00.118Z,6.2
2022-09-01T06:45:00.112Z,6.1
2022-09-01T06:50:00.116Z,6.1
2022-09-01T06:55:02.450Z,5.9
2022-09-01T07:00:00.124Z,5.9
2022-09-01T07:05:00.120Z,6.2
2022-09-01T07:20:23.120Z,6.7
2022-09-01T07:25:12.669Z,6.2
2022-09-01T07:30:00.124Z,6.2
2022-09-01T07:35:00.234Z,6
2022-09-01T07:42:58.462Z,6.2
2022-09-01T07:45:25.342Z,4.6
2022-09-01T07:55:00.101Z,5.3
2022-09-01T08:00:00.107Z,5.3
2022-09-01T08:05:00.115Z,7.1
2022-09-01T08:10:01.724Z,7.1
2022-09-01T08:15:40.849Z,7.7
2022-09-01T08:20:00.128Z,7.7
2022-09-01T08:25:00.097Z,7.4
2022-09-01T08:30:00.121Z,7.4
2022-09-01T08:35:00.118Z,6.1
2022-09-01T08:40:00.106Z,6.1
2022-09-01T08:45:00.099Z,3.8
2022-09-01T08:50:00.177Z,3.8
2022-09-01T08:55:00.255Z,7.7
2022-09-01T09:00:00.214Z,7.7
2022-09-01T09:05:00.330Z,6.3
2022-09-01T09:10:00.108Z,6.3
2022-09-01T09:15:00.110Z,5.3
2022-09-01T09:20:00.147Z,5.3
2022-09-01T09:25:00.119Z,5
2022-09-01T09:30:02.963Z,5
2022-09-01T09:35:00.114Z,4.1
2022-09-01T09:40:00.106Z,4.1
2022-09-01T09:45:00.092Z,5
2022-09-01T09:50:00.123Z,5
2022-09-01T09:55:00.108Z,5.4
2022-09-01T10:00:00.358Z,5.4
2022-09-01T10:05:00.109Z,6.7
2022-09-01T10:10:00.097Z,6.7
2022-09-01T10:15:00.554Z,4.6
2022-09-01T10:20:00.163Z,4.6
2022-09-01T10:25:00.097Z,3.8
2022-09-01T10:30:19.088Z,3.8
2022-09-01T10:35:00.106Z,5.7
2022-09-01T10:40:00.114Z,5.7
2022-09-01T10:45:00.123Z,4.1
2022-09-01T10:50:00.114Z,4.1
2022-09-01T10:55:00.098Z,6.2
2022-09-01T11:00:00.294Z,6.2
2022-09-01T11:05:00.296Z,3.9
2022-09-01T11:10:08.898Z,3.9
2022-09-01T11:15:00.102Z,4.1
2022-09-01T11:20:00.116Z,4.1
2022-09-01T11:25:00.510Z,4.5
2022-09-01T11:30:00.113Z,4.5
2022-09-01T11:35:00.105Z,10.9
2022-09-01T11:40:00.085Z,10.9
2022-09-01T11:45:00.089Z,3.6
2022-09-01T11:50:00.152Z,3.6
2022-09-01T11:55:00.123Z,6.4
2022-09-01T12:00:00.121Z,6.4
2022-09-01T12:05:00.134Z,4.3
2022-09-01T12:10:00.115Z,4.3
2022-09-01T12:15:05.936Z,2.7
2022-09-01T12:20:00.131Z,2.7
2022-09-01T12:25:00.177Z,5.2
2022-09-01T12:30:00.182Z,5.2
2022-09-01T12:35:00.122Z,4.3
2022-09-01T12:40:00.434Z,4.3
2022-09-01T12:45:00.130Z,3.9
2022-09-01T12:50:00.192Z,3.9
2022-09-01T12:55:00.111Z,4.1
2022-09-01T13:00:00.147Z,4.1
2022-09-01T13:05:00.119Z,5.5
2022-09-01T13:10:00.232Z,5.5
2022-09-01T13:15:00.188Z,5
2022-09-01T13:20:00.203Z,5
2022-09-01T13:25:00.103Z,2.9
2022-09-01T13:30:00.133Z,2.9
2022-09-01T13:35:00.193Z,5.3
2022-09-01T13:40:00.125Z,5.3
2022-09-01T13:45:00.096Z,3.9
2022-09-01T13:50:10.202Z,3.9
2022-09-01T13:55:00.103Z,5.7
2022-09-01T14:00:00.087Z,5.7
2022-09-01T14:05:00.101Z,4.5
2022-09-01T14:10:00.116Z,4.5
2022-09-01T14:15:17.434Z,5.3
2022-09-01T14:20:00.148Z,5.3
2022-09-01T14:25:00.117Z,4.3
2022-09-01T14:30:00.142Z,4.3
2022-09-01T14:35:00.143Z,5.5
2022-09-01T14:40:00.102Z,5.5
2022-09-01T14:45:00.100Z,4.6
2022-09-01T14:50:00.270Z,4.6
2022-09-01T14:55:00.112Z,4.4
2022-09-01T15:00:00.097Z,4.4
2022-09-01T15:05:00.228Z,4.5
2022-09-01T15:10:00.120Z,4.5
2022-09-01T15:15:00.114Z,6.8
2022-09-01T15:20:00.125Z,6.8
2022-09-01T15:25:00.117Z,5.4
2022-09-01T15:30:00.103Z,5.4
2022-09-01T15:35:00.129Z,3.1
2022-09-01T15:40:00.116Z,3.1
2022-09-01T15:45:00.088Z,3.8
2022-09-01T15:50:00.122Z,3.8
2022-09-01T15:55:00.103Z,4.3
2022-09-01T16:00:00.100Z,4.3
2022-09-01T16:05:00.112Z,3.2
2022-09-01T16:10:00.104Z,3.2
2022-09-01T16:15:00.115Z,4.4
2022-09-01T16:20:00.126Z,4.4
2022-09-01T16:25:00.102Z,3
2022-09-01T16:30:00.095Z,3
2022-09-01T16:35:00.101Z,5.7
2022-09-01T16:40:00.081Z,5.7
2022-09-01T16:45:00.094Z,4.1
2022-09-01T16:50:00.125Z,4.1
2022-09-01T16:55:00.102Z,5.2
2022-09-01T17:00:00.105Z,5.2
2022-09-01T17:05:00.112Z,3.8
2022-09-01T17:10:00.103Z,3.8
2022-09-01T17:15:00.110Z,6.8
2022-09-01T17:20:00.146Z,6.8
2022-09-01T17:25:00.173Z,5.5
2022-09-01T17:30:00.110Z,5.5
2022-09-01T17:35:00.128Z,4.1
2022-09-01T17:40:00.147Z,4.1
2022-09-01T17:45:00.112Z,8
2022-09-01T17:50:00.151Z,8
2022-09-01T17:55:00.112Z,4.6
2022-09-01T18:00:00.098Z,4.6
2022-09-01T18:05:00.265Z,5.8
2022-09-01T18:10:00.084Z,5.8
2022-09-01T18:15:00.093Z,8.1
2022-09-01T18:20:00.134Z,8.1
2022-09-01T18:25:00.128Z,5.1
2022-09-01T18:30:00.098Z,5.1
2022-09-01T18:35:00.107Z,5.7
2022-09-01T18:40:00.102Z,5.7
2022-09-01T18:45:00.105Z,6.4
2022-09-01T18:50:00.097Z,6.4
2022-09-01T18:55:00.168Z,11.2
2022-09-01T19:00:00.116Z,11.2
2022-09-01T19:05:00.112Z,6.4
2022-09-01T19:10:00.109Z,6.4
2022-09-01T19:15:00.123Z,7.3
2022-09-01T19:20:00.150Z,7.3
2022-09-01T19:25:00.107Z,13.8
2022-09-01T19:30:00.110Z,13.8
2022-09-01T19:35:00.109Z,7.6
2022-09-01T19:40:00.117Z,7.6
2022-09-01T19:45:00.126Z,6.4
2022-09-01T19:50:00.136Z,6.4
2022-09-01T19:55:00.094Z,8
2022-09-01T20:00:00.124Z,8
2022-09-01T20:05:00.108Z,5
2022-09-01T20:10:00.132Z,5
2022-09-01T20:15:00.186Z,10.2
2022-09-01T20:20:00.118Z,10.2
2022-09-01T20:25:00.104Z,5.5
2022-09-01T20:30:00.134Z,5.5
2022-09-01T20:35:00.139Z,6.8
2022-09-01T20:40:00.144Z,6.8
2022-09-01T20:45:00.187Z,4.4
2022-09-01T20:50:00.142Z,4.4
2022-09-01T20:55:00.121Z,6.4
2022-09-01T21:00:00.214Z,6.4
2022-09-01T21:05:00.097Z,6.9
2022-09-01T21:10:00.109Z,6.9
2022-09-01T21:15:00.201Z,5.7
2022-09-01T21:20:00.100Z,5.7
2022-09-01T21:25:00.152Z,4.3
2022-09-01T21:30:00.150Z,4.3
2022-09-01T21:35:00.107Z,4.6
2022-09-01T21:40:00.106Z,4.6
2022-09-01T21:45:00.130Z,5.1
2022-09-01T21:50:00.118Z,5.1
2022-09-01T21:55:00.115Z,4
2022-09-01T22:00:00.119Z,4
2022-09-01T22:05:00.098Z,3.6
2022-09-01T22:10:00.127Z,3.6
2022-09-01T22:15:00.101Z,5.1
2022-09-01T22:20:00.135Z,5.1
2022-09-01T22:25:00.123Z,5.9
2022-09-01T22:30:00.120Z,5.9
2022-09-01T22:35:00.112Z,4.9
2022-09-01T22:40:00.116Z,4.9
2022-09-01T22:45:00.136Z,3.5
2022-09-01T22:50:00.092Z,3.5
2022-09-01T22:55:00.119Z,5.4
2022-09-01T23:00:00.121Z,5.4
2022-09-01T23:05:00.100Z,4.1
2022-09-01T23:10:00.130Z,4.1
2022-09-01T23:15:00.119Z,3.9
2022-09-01T23:20:00.101Z,3.9
2022-09-01T23:25:00.107Z,4.7
2022-09-01T23:30:00.123Z,4.7
2022-09-01T23:35:00.100Z,6.7
2022-09-01T23:40:00.155Z,6.7
2022-09-01T23:45:00.114Z,3.8
2022-09-01T23:50:00.105Z,3.8
2022-09-01T23:55:00.087Z,3.6
